Time;durP1;ratioP1;P1;durP2;ratioP2;P2;SDS_P1;SDS_P2;PMS_P1;PMS_P2;Temp;Humidity;BMP_temperature;BMP_pressure;BME280_temperature;BME280_humidity;BME280_pressure;Samples;Min_cycle;Max_cycle;Signal;HPM_P1;HPM_P2
2023/01/04 00:02:39;;;;;;;10.50;4.53;;;11.40;64.60;;;;;;5092310;28;20482;-69
2023/01/04 00:05:07;;;;;;;5.63;3.97;;;11.40;64.90;;;;;;5091879;28;20451;-69
2023/01/04 00:07:33;;;;;;;5.43;4.20;;;11.40;64.80;;;;;;5091665;28;21127;-69
2023/01/04 00:10:00;;;;;;;5.77;4.40;;;11.30;64.60;;;;;;5091976;28;20450;-69
2023/01/04 00:12:27;;;;;;;4.97;4.47;;;11.40;64.70;;;;;;5092347;28;20447;-69
2023/01/04 00:14:55;;;;;;;4.77;4.20;;;11.40;64.60;;;;;;5109926;28;20453;-70
2023/01/04 00:17:22;;;;;;;4.57;4.17;;;11.40;64.70;;;;;;5098333;28;20454;-70
2023/01/04 00:19:49;;;;;;;4.77;4.27;;;11.40;64.80;;;;;;5109066;28;20449;-70
2023/01/04 00:22:16;;;;;;;4.43;3.53;;;11.30;64.70;;;;;;5043128;28;20569;-70
2023/01/04 00:24:42;;;;;;;4.20;3.77;;;11.30;64.50;;;;;;5092614;28;21011;-70
2023/01/04 00:27:12;;;;;;;4.70;4.10;;;11.30;64.40;;;;;;5103578;28;20445;-68
2023/01/04 00:29:39;;;;;;;4.60;4.10;;;11.30;64.20;;;;;;5101570;28;20811;-69
2023/01/04 00:32:07;;;;;;;4.33;3.97;;;11.30;64.30;;;;;;5091976;28;20533;-71
2023/01/04 00:34:34;;;;;;;5.83;4.40;;;11.30;64.40;;;;;;5092500;28;20482;-70
2023/01/04 00:37:01;;;;;;;7.10;4.37;;;11.20;64.30;;;;;;5098200;28;20493;-70
2023/01/04 00:39:28;;;;;;;4.20;3.80;;;11.20;64.40;;;;;;5100653;28;20564;-69
2023/01/04 00:42:03;;;;;;;4.63;4.07;;;11.10;64.20;;;;;;5094098;28;20508;-69
2023/01/04 00:44:31;;;;;;;5.13;4.10;;;11.20;64.10;;;;;;5092498;28;20442;-69
2023/01/04 00:46:58;;;;;;;4.50;4.10;;;11.20;64.20;;;;;;5100889;28;20454;-69
2023/01/04 00:49:27;;;;;;;4.53;3.73;;;11.20;64.10;;;;;;5103547;28;20481;-69
2023/01/04 00:51:55;;;;;;;4.67;4.20;;;11.10;63.80;;;;;;5092248;28;20443;-69
2023/01/04 00:54:22;;;;;;;4.03;3.63;;;11.10;63.90;;;;;;5091877;28;20458;-70
2023/01/04 00:56:49;;;;;;;4.80;4.30;;;11.10;64.10;;;;;;5091983;28;20451;-69
2023/01/04 00:59:18;;;;;;;5.77;4.30;;;11.00;64.10;;;;;;5099783;28;20445;-70
2023/01/04 01:01:49;;;;;;;4.33;3.90;;;11.00;64.10;;;;;;5112250;28;20449;-70
2023/01/04 01:04:18;;;;;;;5.33;4.00;;;10.90;64.10;;;;;;5112031;28;20470;-69
2023/01/04 01:06:47;;;;;;;4.27;3.87;;;10.90;64.20;;;;;;5104659;28;20446;-70
2023/01/04 01:09:14;;;;;;;5.60;3.80;;;10.90;64.20;;;;;;5097185;28;20473;-70
2023/01/04 01:11:42;;;;;;;4.80;3.50;;;10.80;64.10;;;;;;5112412;28;20454;-70
2023/01/04 01:14:13;;;;;;;4.37;3.57;;;10.70;64.20;;;;;;5099936;28;20450;-70
2023/01/04 01:16:40;;;;;;;4.03;3.63;;;10.70;64.60;;;;;;5056096;28;20438;-69
2023/01/04 01:19:07;;;;;;;3.60;3.30;;;10.60;65.30;;;;;;5096826;28;20446;-69
2023/01/04 01:21:33;;;;;;;4.30;3.90;;;10.50;64.30;;;;;;5096485;28;20446;-70
2023/01/04 01:24:02;;;;;;;3.90;3.40;;;10.50;64.40;;;;;;5094983;28;20482;-70
2023/01/04 01:26:28;;;;;;;4.07;3.67;;;10.40;64.50;;;;;;5115384;28;20460;-70
2023/01/04 01:28:55;;;;;;;4.20;3.53;;;10.40;64.50;;;;;;5111683;28;20447;-69
2023/01/04 01:31:24;;;;;;;4.53;3.13;;;10.40;64.50;;;;;;5095082;28;20932;-69
2023/01/04 01:33:52;;;;;;;4.30;3.40;;;10.40;64.50;;;;;;5095390;28;20442;-70
2023/01/04 01:36:21;;;;;;;5.33;3.50;;;10.30;64.40;;;;;;5095357;28;20457;-70
2023/01/04 01:38:49;;;;;;;3.30;3.00;;;10.30;64.30;;;;;;5095589;28;20486;-70
2023/01/04 01:41:19;;;;;;;4.47;3.23;;;10.30;64.30;;;;;;5094978;28;20537;-70
2023/01/04 01:43:52;;;;;;;4.57;3.40;;;10.30;64.30;;;;;;5095138;28;20478;-70
2023/01/04 01:46:23;;;;;;;4.10;3.30;;;10.30;64.30;;;;;;5095586;28;20449;-69
2023/01/04 01:48:53;;;;;;;4.17;3.17;;;10.30;64.30;;;;;;5100623;28;20437;-69
2023/01/04 01:51:20;;;;;;;3.73;3.43;;;10.30;64.20;;;;;;5094725;28;20457;-68
2023/01/04 01:53:52;;;;;;;3.93;2.97;;;10.30;64.40;;;;;;5095607;28;20442;-68
2023/01/04 01:56:22;;;;;;;3.67;3.33;;;10.30;64.50;;;;;;5112274;28;20820;-70
2023/01/04 01:58:53;;;;;;;4.73;4.03;;;10.30;64.40;;;;;;5108729;28;20454;-68
2023/01/04 02:01:21;;;;;;;4.33;3.27;;;10.30;64.70;;;;;;5104334;28;20456;-69
2023/01/04 02:03:48;;;;;;;3.90;3.50;;;10.30;65.00;;;;;;5115725;28;20573;-69
2023/01/04 02:06:21;;;;;;;3.70;3.40;;;10.30;65.00;;;;;;5115868;28;20801;-71
2023/01/04 02:08:49;;;;;;;4.00;3.43;;;10.30;64.80;;;;;;5135637;28;20489;-69
2023/01/04 02:11:16;;;;;;;3.77;3.43;;;10.20;64.50;;;;;;5137897;28;20461;-70
2023/01/04 02:16:45;;;;;;;3.50;3.20;;;10.40;64.70;;;;;;5105959;28;20414;-69
2023/01/04 02:19:33;;;;;;;4.47;3.60;;;10.20;64.80;;;;;;5127550;28;20443;-70
2023/01/04 02:22:42;;;;;;;4.43;3.30;;;10.30;65.10;;;;;;5126970;28;20451;-70
2023/01/04 02:25:33;;;;;;;4.10;3.70;;;10.30;65.00;;;;;;5119096;28;20530;-70
2023/01/04 02:28:05;;;;;;;3.67;3.33;;;10.30;65.40;;;;;;5112195;28;20425;-69
2023/01/04 02:30:56;;;;;;;4.33;3.80;;;10.30;65.40;;;;;;5099793;28;20488;-69
2023/01/04 02:33:43;;;;;;;5.43;4.03;;;10.30;65.80;;;;;;5102157;28;20515;-69
2023/01/04 02:36:18;;;;;;;4.80;4.37;;;10.20;66.10;;;;;;5094154;28;20431;-70
2023/01/04 02:38:58;;;;;;;6.10;5.20;;;10.20;67.30;;;;;;5098918;28;20477;-70
2023/01/04 02:41:29;;;;;;;5.20;4.67;;;10.20;68.10;;;;;;5111551;28;20610;-70
2023/01/04 02:46:51;;;;;;;6.93;5.40;;;10.30;69.10;;;;;;5114662;28;20408;-70
2023/01/04 02:52:02;;;;;;;7.67;6.67;;;10.30;69.80;;;;;;5103810;28;20449;-69
2023/01/04 02:54:32;;;;;;;10.03;8.33;;;10.30;70.50;;;;;;5104066;28;20449;-69
2023/01/04 02:57:21;;;;;;;12.63;8.97;;;10.20;71.40;;;;;;5114765;28;20449;-70
2023/01/04 03:00:01;;;;;;;11.73;10.50;;;10.20;72.60;;;;;;5114372;28;20430;-71
2023/01/04 03:06:17;;;;;;;10.70;9.60;;;10.10;73.50;;;;;;5067741;28;20474;-71
2023/01/04 03:08:56;;;;;;;10.60;9.40;;;10.20;73.20;;;;;;5075191;28;20470;-69
2023/01/04 03:14:18;;;;;;;12.03;10.67;;;10.20;73.40;;;;;;5112558;28;20433;-71
2023/01/04 03:16:47;;;;;;;13.33;10.47;;;10.20;73.60;;;;;;5114177;28;20422;-71
2023/01/04 03:19:50;;;;;;;14.67;11.20;;;10.20;73.80;;;;;;5106268;28;20445;-69
2023/01/04 03:36:12;;;;;;;18.70;13.63;;;10.20;75.30;;;;;;5093455;28;20779;-69
2023/01/04 03:50:06;;;;;;;15.77;11.93;;;10.20;76.20;;;;;;5108070;28;20442;-70
2023/01/04 03:52:36;;;;;;;17.83;12.80;;;10.20;76.10;;;;;;5092920;28;20443;-70
2023/01/04 03:55:05;;;;;;;16.40;12.17;;;10.20;76.00;;;;;;5093196;28;20443;-70
2023/01/04 03:57:32;;;;;;;14.17;11.47;;;10.20;75.90;;;;;;5092881;28;20446;-71
2023/01/04 04:00:04;;;;;;;15.20;12.47;;;10.30;76.60;;;;;;5093105;28;20446;-71
2023/01/04 04:02:33;;;;;;;16.17;11.97;;;10.20;75.80;;;;;;5101789;28;20447;-70
2023/01/04 04:10:30;;;;;;;15.37;12.60;;;10.20;75.70;;;;;;5092258;28;20413;-70
2023/01/04 04:12:56;;;;;;;13.70;11.50;;;10.30;75.90;;;;;;5106068;28;20446;-70
2023/01/04 04:15:23;;;;;;;13.40;11.63;;;10.30;75.60;;;;;;5095329;28;21025;-70
2023/01/04 04:17:51;;;;;;;14.17;12.03;;;10.30;75.60;;;;;;5093078;28;20446;-71
2023/01/04 04:20:18;;;;;;;14.47;11.50;;;10.40;75.60;;;;;;5111150;28;20452;-69
2023/01/04 04:22:46;;;;;;;16.70;11.70;;;10.40;75.20;;;;;;5099912;28;20484;-71
2023/01/04 04:25:13;;;;;;;14.60;11.80;;;10.30;75.40;;;;;;5091782;28;20450;-71
2023/01/04 04:27:40;;;;;;;15.20;11.80;;;10.30;75.30;;;;;;5109882;28;20460;-71
2023/01/04 04:30:07;;;;;;;13.13;11.37;;;10.40;75.30;;;;;;5111875;28;20448;-70
2023/01/04 04:32:34;;;;;;;13.43;11.23;;;10.40;75.10;;;;;;5101558;28;20446;-70
2023/01/04 04:35:01;;;;;;;14.30;11.60;;;10.40;75.00;;;;;;5092147;28;20457;-70
2023/01/04 04:37:30;;;;;;;14.03;11.00;;;10.40;75.10;;;;;;5094547;28;20463;-71
2023/01/04 04:39:58;;;;;;;13.97;11.47;;;10.50;75.00;;;;;;5092188;28;20487;-71
2023/01/04 04:42:25;;;;;;;14.13;11.10;;;10.50;75.00;;;;;;5100553;28;20449;-69
2023/01/04 04:44:51;;;;;;;14.93;11.40;;;10.50;75.00;;;;;;5112818;28;21023;-71
2023/01/04 04:47:19;;;;;;;14.13;10.67;;;10.50;75.70;;;;;;5107358;28;20446;-71
2023/01/04 04:49:45;;;;;;;13.67;10.13;;;10.50;74.70;;;;;;5092483;28;20446;-70
2023/01/04 04:52:12;;;;;;;12.73;9.50;;;10.50;74.80;;;;;;5098151;28;20558;-70
2023/01/04 04:54:39;;;;;;;9.87;8.43;;;10.50;74.70;;;;;;5114726;28;20801;-71
2023/01/04 04:57:07;;;;;;;11.00;8.63;;;10.50;74.70;;;;;;5116775;28;20445;-70
2023/01/04 04:59:35;;;;;;;10.27;7.97;;;10.50;74.80;;;;;;5111858;28;20450;-70
2023/01/04 05:02:02;;;;;;;10.83;8.30;;;10.50;74.50;;;;;;5101613;28;20548;-70
2023/01/04 05:04:29;;;;;;;9.47;7.63;;;10.60;74.40;;;;;;5115980;28;20488;-70
2023/01/04 05:06:56;;;;;;;6.87;6.17;;;10.60;74.20;;;;;;5116634;28;20461;-70
2023/01/04 05:09:22;;;;;;;7.70;6.33;;;10.60;74.00;;;;;;5115907;28;20468;-71
2023/01/04 05:14:35;;;;;;;7.07;6.07;;;10.80;73.30;;;;;;5115621;28;20428;-71
2023/01/04 05:17:01;;;;;;;6.87;6.10;;;10.90;73.30;;;;;;5097772;28;20450;-71
2023/01/04 05:19:28;;;;;;;6.10;5.50;;;11.00;72.60;;;;;;5109810;28;20445;-71
2023/01/04 05:21:55;;;;;;;7.37;5.27;;;11.00;72.20;;;;;;5115643;28;20457;-70
2023/01/04 05:24:22;;;;;;;5.53;5.03;;;11.00;72.00;;;;;;5104461;28;20470;-70
2023/01/04 05:26:49;;;;;;;5.23;4.73;;;11.10;72.00;;;;;;5095753;28;20926;-70
2023/01/04 05:31:58;;;;;;;7.07;6.20;;;11.10;71.90;;;;;;5102407;28;21005;-70
2023/01/04 05:34:24;;;;;;;7.77;6.77;;;11.10;71.60;;;;;;5095078;28;20434;-70
2023/01/04 05:36:51;;;;;;;10.10;7.40;;;11.10;71.50;;;;;;5110076;28;20955;-69
2023/01/04 05:39:18;;;;;;;8.83;7.10;;;11.10;71.60;;;;;;5114121;28;20475;-69
2023/01/04 05:44:35;;;;;;;7.93;7.13;;;11.10;71.50;;;;;;5079106;28;20486;-70
2023/01/04 05:47:03;;;;;;;7.60;6.83;;;11.00;71.40;;;;;;5095466;28;20446;-71
2023/01/04 05:49:30;;;;;;;8.27;6.37;;;11.00;71.60;;;;;;5112004;28;20449;-71
2023/01/04 05:51:56;;;;;;;7.30;6.47;;;11.00;71.40;;;;;;5109353;28;20446;-71
2023/01/04 05:54:23;;;;;;;7.77;6.50;;;11.10;71.20;;;;;;5094581;28;20435;-70
2023/01/04 05:56:50;;;;;;;8.60;6.60;;;11.10;71.10;;;;;;5111486;28;20477;-71
2023/01/04 05:59:17;;;;;;;6.43;5.83;;;11.10;71.00;;;;;;5114128;28;20452;-71
2023/01/04 06:01:44;;;;;;;7.23;6.23;;;11.10;70.90;;;;;;5095862;28;20442;-71
2023/01/04 06:04:12;;;;;;;6.70;5.83;;;11.20;70.70;;;;;;5094508;28;20484;-70
2023/01/04 06:06:39;;;;;;;6.13;5.13;;;11.30;70.70;;;;;;5094124;28;20442;-71
2023/01/04 06:09:06;;;;;;;6.50;5.70;;;11.30;70.30;;;;;;5095005;28;20458;-70
2023/01/04 06:11:33;;;;;;;6.30;5.17;;;11.40;70.20;;;;;;5095815;28;20453;-71
2023/01/04 06:13:59;;;;;;;5.87;5.20;;;11.40;70.00;;;;;;5114682;28;20449;-70
2023/01/04 06:16:26;;;;;;;5.57;5.07;;;11.30;69.80;;;;;;5114688;28;20532;-71
2023/01/04 06:18:53;;;;;;;4.23;3.87;;;11.30;69.80;;;;;;5105216;28;20533;-71
2023/01/04 06:21:21;;;;;;;4.50;3.30;;;11.30;70.10;;;;;;5107683;28;20454;-71
2023/01/04 06:23:48;;;;;;;5.13;4.47;;;11.30;70.20;;;;;;5095816;28;20488;-71
2023/01/04 06:26:15;;;;;;;6.53;4.60;;;11.30;70.10;;;;;;5094103;28;20469;-70
2023/01/04 06:28:42;;;;;;;5.77;4.33;;;11.40;69.90;;;;;;5094638;28;20447;-71
2023/01/04 06:31:10;;;;;;;3.87;3.47;;;11.50;69.80;;;;;;5094337;28;20450;-71
2023/01/04 06:33:37;;;;;;;2.50;2.30;;;11.50;69.70;;;;;;5105522;28;20442;-71
2023/01/04 06:36:05;;;;;;;2.17;1.80;;;11.50;70.60;;;;;;5094394;28;20452;-69
2023/01/04 06:38:33;;;;;;;1.77;1.33;;;11.50;70.50;;;;;;5093639;28;20494;-71
2023/01/04 06:41:00;;;;;;;2.90;1.30;;;11.50;70.80;;;;;;5093817;28;20459;-70
2023/01/04 06:43:27;;;;;;;1.70;1.27;;;11.50;71.20;;;;;;5094712;28;20477;-71
2023/01/04 06:45:54;;;;;;;2.10;1.33;;;11.60;70.80;;;;;;5094782;28;20455;-70
2023/01/04 06:48:21;;;;;;;1.60;1.50;;;11.60;70.80;;;;;;5093366;28;20453;-71
2023/01/04 06:50:48;;;;;;;2.50;1.10;;;11.60;70.80;;;;;;5094318;28;20805;-70
2023/01/04 06:53:15;;;;;;;1.73;1.47;;;11.60;70.50;;;;;;5095612;28;20453;-70
2023/01/04 06:55:43;;;;;;;2.90;1.87;;;11.70;70.50;;;;;;5113947;28;20952;-71
2023/01/04 06:58:10;;;;;;;1.20;1.00;;;11.70;70.20;;;;;;5114133;28;20446;-70
2023/01/04 07:00:37;;;;;;;1.37;1.10;;;11.70;70.70;;;;;;5113866;28;20445;-71
2023/01/04 07:03:04;;;;;;;2.10;1.30;;;11.80;69.80;;;;;;5112189;28;20449;-71
2023/01/04 07:05:31;;;;;;;1.60;1.10;;;11.80;69.60;;;;;;5094456;28;21033;-71
2023/01/04 07:07:59;;;;;;;1.00;1.00;;;12.00;69.70;;;;;;5114101;28;20469;-71
2023/01/04 07:10:26;;;;;;;2.10;1.50;;;12.00;69.60;;;;;;5094983;28;20453;-70
2023/01/04 07:12:55;;;;;;;1.67;1.33;;;12.00;68.60;;;;;;5093836;28;20533;-71
2023/01/04 07:15:22;;;;;;;2.77;1.53;;;12.00;68.30;;;;;;5111288;28;20461;-71
2023/01/04 07:17:49;;;;;;;1.40;1.00;;;12.10;68.20;;;;;;5107905;28;20469;-70
2023/01/04 07:20:16;;;;;;;1.30;1.20;;;12.10;68.20;;;;;;5113438;28;20441;-72
2023/01/04 07:22:43;;;;;;;2.00;1.00;;;12.20;67.90;;;;;;5114061;28;20444;-71
2023/01/04 07:25:10;;;;;;;1.57;1.10;;;12.20;67.70;;;;;;5112811;28;20473;-71
2023/01/04 07:27:37;;;;;;;2.87;1.33;;;12.20;67.70;;;;;;5112317;28;20456;-71
2023/01/04 07:30:06;;;;;;;1.00;1.00;;;12.10;67.60;;;;;;5105054;28;20762;-71
2023/01/04 07:32:33;;;;;;;1.20;1.10;;;12.20;67.30;;;;;;5092831;28;20446;-71
2023/01/04 07:34:59;;;;;;;1.17;1.07;;;12.10;67.30;;;;;;5109100;28;20817;-71
2023/01/04 07:37:26;;;;;;;0.93;0.93;;;12.10;67.70;;;;;;5112884;28;20545;-71
2023/01/04 07:39:53;;;;;;;2.50;1.30;;;12.10;67.60;;;;;;5112043;28;20448;-71
2023/01/04 07:42:20;;;;;;;1.07;1.00;;;12.20;67.50;;;;;;5104622;28;20528;-71
2023/01/04 07:44:47;;;;;;;1.80;1.07;;;12.20;68.20;;;;;;5106539;28;20477;-71
2023/01/04 07:47:15;;;;;;;3.07;1.50;;;12.20;67.20;;;;;;5113472;28;20441;-71
2023/01/04 07:49:42;;;;;;;1.77;1.00;;;12.00;67.90;;;;;;5112765;28;20840;-71
2023/01/04 07:52:09;;;;;;;2.17;1.00;;;12.10;67.50;;;;;;5092789;28;20446;-69
2023/01/04 07:54:36;;;;;;;1.70;0.80;;;12.20;67.40;;;;;;5099595;28;20445;-71
2023/01/04 07:57:03;;;;;;;2.53;1.27;;;12.20;67.10;;;;;;5112870;28;20446;-71
2023/01/04 07:59:30;;;;;;;1.23;1.07;;;12.20;67.00;;;;;;5112353;28;20449;-72
2023/01/04 08:01:57;;;;;;;1.37;0.90;;;12.30;66.70;;;;;;5111341;28;20448;-72
2023/01/04 08:04:25;;;;;;;2.60;1.20;;;12.40;66.40;;;;;;5099515;28;20470;-71
2023/01/04 08:06:52;;;;;;;1.00;1.00;;;12.40;66.40;;;;;;5113008;28;20460;-71
2023/01/04 08:09:19;;;;;;;1.10;1.00;;;12.40;66.00;;;;;;5111886;28;20462;-71
2023/01/04 08:11:46;;;;;;;1.13;0.87;;;12.40;66.40;;;;;;5113035;28;20441;-70
2023/01/04 08:14:13;;;;;;;2.43;0.97;;;12.40;66.10;;;;;;5104669;28;20447;-70
2023/01/04 08:16:41;;;;;;;1.23;0.90;;;12.40;66.10;;;;;;5093050;28;20453;-70
2023/01/04 08:19:12;;;;;;;1.00;0.80;;;12.50;66.10;;;;;;5104251;28;20460;-71
2023/01/04 08:21:41;;;;;;;3.20;1.03;;;12.50;65.60;;;;;;5112395;28;20526;-70
2023/01/04 08:24:12;;;;;;;1.57;1.20;;;12.60;65.70;;;;;;5111774;28;20481;-70
2023/01/04 08:26:39;;;;;;;2.53;1.20;;;12.60;65.00;;;;;;5111613;28;20782;-70
2023/01/04 08:29:06;;;;;;;0.97;0.90;;;12.60;65.00;;;;;;5096954;28;20452;-70
2023/01/04 08:31:34;;;;;;;1.20;0.73;;;12.60;64.80;;;;;;5092950;28;20795;-71
2023/01/04 08:34:04;;;;;;;1.90;1.17;;;12.60;64.80;;;;;;5096639;28;20445;-70
2023/01/04 08:36:32;;;;;;;1.37;0.83;;;12.60;64.70;;;;;;5091453;28;20530;-65
2023/01/04 08:39:03;;;;;;;0.70;0.70;;;12.70;64.70;;;;;;5092085;28;21004;-70
2023/01/04 08:41:49;;;;;;;1.30;0.90;;;12.80;64.40;;;;;;5106370;28;20434;-70
2023/01/04 08:44:16;;;;;;;1.20;0.90;;;12.70;63.80;;;;;;5101912;28;20642;-71
2023/01/04 08:46:43;;;;;;;2.40;1.00;;;12.80;64.20;;;;;;5106401;28;20445;-70
2023/01/04 08:49:13;;;;;;;1.20;1.10;;;12.70;63.60;;;;;;5111596;28;20441;-70
2023/01/04 08:51:40;;;;;;;0.97;0.77;;;12.80;64.90;;;;;;5104370;28;20473;-70
2023/01/04 08:54:08;;;;;;;0.80;0.70;;;12.80;63.70;;;;;;5112006;28;20452;-72
2023/01/04 08:56:35;;;;;;;1.90;1.13;;;12.80;63.80;;;;;;5111868;28;20499;-70
2023/01/04 08:59:02;;;;;;;1.90;0.93;;;12.80;63.90;;;;;;5112610;28;20540;-70
2023/01/04 09:01:31;;;;;;;2.80;1.10;;;12.90;64.00;;;;;;5109851;28;20441;-70
2023/01/04 09:03:57;;;;;;;2.07;1.00;;;12.90;63.70;;;;;;5112485;28;20449;-70
2023/01/04 09:06:25;;;;;;;2.20;0.97;;;12.90;63.90;;;;;;5112051;28;20473;-70
2023/01/04 09:08:52;;;;;;;1.67;1.10;;;12.90;63.40;;;;;;5112188;28;20504;-70
2023/01/04 09:11:21;;;;;;;3.17;1.10;;;12.90;63.50;;;;;;5112540;28;20456;-69
2023/01/04 09:13:49;;;;;;;1.30;1.00;;;13.00;63.30;;;;;;5110113;28;20457;-70
2023/01/04 09:16:19;;;;;;;1.63;0.80;;;13.00;63.20;;;;;;5102805;28;20454;-70
2023/01/04 09:18:47;;;;;;;1.97;1.37;;;13.00;63.00;;;;;;5107479;28;20528;-72
2023/01/04 09:21:16;;;;;;;2.00;1.07;;;13.10;63.00;;;;;;5112238;28;20456;-69
2023/01/04 09:23:45;;;;;;;1.30;1.20;;;13.10;63.00;;;;;;5111703;28;20453;-72
2023/01/04 09:26:14;;;;;;;1.20;0.90;;;13.20;62.70;;;;;;5111799;28;20815;-71
2023/01/04 09:28:43;;;;;;;0.87;0.80;;;13.10;62.30;;;;;;5111764;28;20453;-71
2023/01/04 09:31:13;;;;;;;2.10;1.27;;;13.20;62.50;;;;;;5112434;28;20453;-70
2023/01/04 09:33:40;;;;;;;1.37;0.90;;;13.20;62.60;;;;;;5102901;28;20504;-71
2023/01/04 09:36:08;;;;;;;1.13;0.90;;;13.40;62.60;;;;;;5095114;28;20470;-71
2023/01/04 09:38:36;;;;;;;1.13;0.90;;;13.40;62.10;;;;;;5105319;28;20550;-71
2023/01/04 09:41:12;;;;;;;2.60;1.00;;;13.40;61.70;;;;;;5092634;28;20937;-70
2023/01/04 09:43:45;;;;;;;1.33;0.83;;;13.40;61.90;;;;;;5097218;28;20548;-71
2023/01/04 09:46:18;;;;;;;1.97;1.03;;;13.40;62.10;;;;;;5107201;28;20520;-72
2023/01/04 09:48:48;;;;;;;1.63;1.20;;;13.40;62.10;;;;;;5098975;28;20445;-72
2023/01/04 09:51:19;;;;;;;1.33;1.03;;;13.40;62.30;;;;;;5114911;28;20449;-71
2023/01/04 09:53:50;;;;;;;1.63;0.90;;;13.40;62.40;;;;;;5106007;28;20442;-72
2023/01/04 09:56:23;;;;;;;0.80;0.80;;;13.40;62.30;;;;;;5095987;28;20771;-71
2023/01/04 09:58:53;;;;;;;1.77;0.80;;;13.50;62.10;;;;;;5111443;28;20499;-70
2023/01/04 10:01:24;;;;;;;2.00;1.10;;;13.50;62.20;;;;;;5115559;28;20965;-70
2023/01/04 10:03:59;;;;;;;1.20;0.93;;;13.50;62.10;;;;;;5056578;28;20795;-71
2023/01/04 10:06:33;;;;;;;1.80;1.13;;;13.60;62.20;;;;;;5108876;28;20530;-71
2023/01/04 10:09:06;;;;;;;3.13;1.40;;;13.60;61.60;;;;;;5115172;28;20437;-71
2023/01/04 10:11:49;;;;;;;0.90;0.90;;;13.60;61.60;;;;;;5115118;28;20847;-71
2023/01/04 10:14:33;;;;;;;2.23;1.00;;;13.60;61.30;;;;;;5111768;28;20933;-71
2023/01/04 10:17:13;;;;;;;1.60;1.03;;;13.70;61.70;;;;;;5095510;28;20804;-72
2023/01/04 10:20:03;;;;;;;1.70;1.03;;;13.60;61.00;;;;;;5095017;28;20449;-71
2023/01/04 10:22:41;;;;;;;1.57;0.87;;;13.60;61.00;;;;;;5082668;28;20499;-70
2023/01/04 10:25:23;;;;;;;1.77;1.20;;;13.60;61.10;;;;;;5096610;28;20557;-70
2023/01/04 10:28:00;;;;;;;1.43;1.13;;;13.70;61.10;;;;;;5104701;28;20442;-70
2023/01/04 10:30:39;;;;;;;1.23;1.00;;;13.70;61.30;;;;;;5094267;28;20442;-71
2023/01/04 10:33:12;;;;;;;1.83;1.20;;;13.70;60.50;;;;;;5094117;28;20430;-69
2023/01/04 10:35:42;;;;;;;1.47;1.00;;;13.70;60.70;;;;;;5093966;28;20877;-69
2023/01/04 10:38:16;;;;;;;1.87;1.07;;;13.70;60.70;;;;;;5094520;28;20486;-69
2023/01/04 10:40:46;;;;;;;2.53;0.80;;;13.70;60.70;;;;;;5094107;28;20461;-72
2023/01/04 10:43:22;;;;;;;1.60;1.03;;;13.80;60.40;;;;;;5101462;28;20438;-70
2023/01/04 10:45:59;;;;;;;1.53;1.10;;;13.80;60.00;;;;;;5101181;28;20556;-70
2023/01/04 10:48:34;;;;;;;1.13;1.03;;;13.70;60.40;;;;;;5106695;28;20528;-73
2023/01/04 10:51:03;;;;;;;2.03;1.23;;;13.60;60.10;;;;;;5114561;28;20447;-72
2023/01/04 10:53:35;;;;;;;1.13;0.90;;;13.50;60.40;;;;;;5113808;28;20532;-72
2023/01/04 10:56:09;;;;;;;1.07;1.07;;;13.60;61.00;;;;;;5113676;28;20514;-72
2023/01/04 10:58:43;;;;;;;1.33;0.90;;;13.60;61.30;;;;;;5113071;28;20449;-72
2023/01/04 11:01:16;;;;;;;0.90;0.80;;;13.60;60.90;;;;;;5114518;28;20792;-72
2023/01/04 11:03:50;;;;;;;3.10;1.00;;;13.70;61.20;;;;;;5108550;28;20498;-72
2023/01/04 11:06:23;;;;;;;1.00;0.90;;;13.60;61.10;;;;;;5114278;28;20465;-72
2023/01/04 11:15:37;;;;;;;1.63;0.90;;;13.60;61.60;;;;;;5108924;28;20417;-72
2023/01/04 11:25:13;;;;;;;3.07;1.10;;;13.50;62.70;;;;;;5098904;28;20409;-72
2023/01/04 11:27:46;;;;;;;1.07;0.97;;;13.40;63.00;;;;;;5102905;28;20454;-72
2023/01/04 11:30:21;;;;;;;2.33;1.00;;;13.40;63.50;;;;;;5109825;28;20446;-72
2023/01/04 11:32:54;;;;;;;2.40;0.90;;;13.50;63.20;;;;;;5093100;28;20984;-72
2023/01/04 11:35:41;;;;;;;1.20;1.10;;;13.50;63.30;;;;;;5104517;28;20430;-72
2023/01/04 11:38:15;;;;;;;0.83;0.83;;;13.50;63.40;;;;;;5112857;28;20887;-72
2023/01/04 11:40:59;;;;;;;0.70;0.70;;;13.60;63.30;;;;;;5109617;28;20487;-72
2023/01/04 11:43:27;;;;;;;1.17;0.87;;;13.50;63.60;;;;;;5104797;28;20466;-72
2023/01/04 11:45:57;;;;;;;1.80;1.07;;;13.40;63.40;;;;;;5092839;28;20589;-72
2023/01/04 11:48:41;;;;;;;2.43;0.90;;;13.50;63.60;;;;;;5094023;28;20478;-71
2023/01/04 11:51:20;;;;;;;1.43;0.93;;;13.50;63.30;;;;;;5103168;28;20486;-71
2023/01/04 11:53:58;;;;;;;2.63;1.10;;;13.70;63.30;;;;;;5113178;28;20461;-72
2023/01/04 11:56:28;;;;;;;0.97;0.87;;;13.70;62.70;;;;;;5112823;28;20504;-72
2023/01/04 11:59:10;;;;;;;2.20;1.20;;;13.60;63.00;;;;;;5096345;28;20447;-72
2023/01/04 12:01:39;;;;;;;1.50;1.00;;;13.60;63.20;;;;;;5109492;28;20506;-71
2023/01/04 12:04:13;;;;;;;1.20;1.07;;;13.50;63.00;;;;;;5112244;28;20477;-72
2023/01/04 12:06:46;;;;;;;1.20;1.10;;;13.60;63.30;;;;;;5111420;28;20496;-72
2023/01/04 12:09:15;;;;;;;1.90;0.93;;;13.60;63.30;;;;;;5095035;28;20530;-72
2023/01/04 12:11:48;;;;;;;1.23;0.93;;;13.60;63.40;;;;;;5102485;28;20491;-72
2023/01/04 12:14:24;;;;;;;0.90;0.90;;;13.50;64.10;;;;;;5107782;28;20442;-72
2023/01/04 12:16:59;;;;;;;1.00;0.90;;;13.60;64.20;;;;;;5112023;28;20945;-72
2023/01/04 12:19:27;;;;;;;1.37;0.87;;;13.70;64.20;;;;;;5099276;28;20504;-72
2023/01/04 12:21:59;;;;;;;1.37;1.10;;;13.80;63.90;;;;;;5104192;28;20438;-72
2023/01/04 12:24:29;;;;;;;1.40;1.20;;;13.70;64.10;;;;;;5096079;28;20783;-72
2023/01/04 12:26:59;;;;;;;1.57;0.83;;;13.70;64.40;;;;;;5112492;28;21050;-72
2023/01/04 12:29:49;;;;;;;1.07;1.03;;;13.70;64.40;;;;;;5112130;28;20450;-72
2023/01/04 12:32:45;;;;;;;2.00;1.00;;;13.60;64.70;;;;;;5112536;28;20981;-72
2023/01/04 12:36:01;;;;;;;2.13;1.00;;;13.80;64.20;;;;;;5052088;28;20452;-72
2023/01/04 12:39:01;;;;;;;1.03;0.90;;;13.80;64.00;;;;;;5108706;28;20473;-71
2023/01/04 12:42:14;;;;;;;1.97;1.10;;;13.70;63.80;;;;;;5111817;28;20485;-72
2023/01/04 12:45:20;;;;;;;1.40;1.00;;;14.00;63.70;;;;;;5104097;28;20520;-72
2023/01/04 12:51:22;;;;;;;0.87;0.87;;;14.10;63.30;;;;;;5093106;28;20583;-72
2023/01/04 12:53:54;;;;;;;2.43;1.00;;;14.00;63.00;;;;;;5092057;28;20480;-72
2023/01/04 12:56:21;;;;;;;3.00;1.00;;;14.10;62.90;;;;;;5096282;28;20842;-72
2023/01/04 12:59:08;;;;;;;1.20;1.10;;;14.00;63.40;;;;;;5112441;28;20530;-72
2023/01/04 13:01:37;;;;;;;2.03;1.40;;;14.10;63.60;;;;;;5110669;28;20440;-72
2023/01/04 13:04:29;;;;;;;1.43;1.00;;;14.00;63.60;;;;;;5110362;28;20442;-72
2023/01/04 13:07:09;;;;;;;0.97;0.93;;;14.10;64.00;;;;;;5097425;28;20481;-72
2023/01/04 13:09:43;;;;;;;0.90;0.90;;;14.10;63.80;;;;;;5102537;28;20537;-72
2023/01/04 13:12:45;;;;;;;1.40;1.10;;;14.20;63.60;;;;;;5096980;28;20529;-72
2023/01/04 13:15:20;;;;;;;1.20;1.10;;;14.10;63.60;;;;;;5093381;28;20458;-72
2023/01/04 13:17:49;;;;;;;1.23;1.10;;;14.10;63.40;;;;;;5095785;28;20537;-72
2023/01/04 13:20:20;;;;;;;2.33;1.10;;;14.20;63.30;;;;;;5094808;28;20467;-72
2023/01/04 13:22:53;;;;;;;1.90;1.10;;;14.30;63.10;;;;;;5091045;28;20511;-71
2023/01/04 13:25:21;;;;;;;1.53;1.27;;;14.40;63.20;;;;;;5089813;28;20469;-72
2023/01/04 13:27:59;;;;;;;1.83;1.10;;;14.30;63.10;;;;;;5096103;28;20512;-72
2023/01/04 13:30:32;;;;;;;2.90;1.40;;;14.20;63.40;;;;;;5103834;28;20438;-72
2023/01/04 13:33:08;;;;;;;2.00;1.07;;;14.20;63.30;;;;;;5097254;28;20466;-68
2023/01/04 13:35:35;;;;;;;1.53;1.20;;;14.10;63.40;;;;;;5105651;28;20492;-68
2023/01/04 13:38:02;;;;;;;1.70;1.10;;;14.10;63.80;;;;;;5113419;28;20860;-68
2023/01/04 13:40:34;;;;;;;1.13;1.03;;;14.20;63.70;;;;;;5105034;28;20496;-68
2023/01/04 13:43:31;;;;;;;1.93;1.40;;;14.10;63.80;;;;;;5095184;28;20445;-68
2023/01/04 13:46:15;;;;;;;1.23;1.00;;;14.20;64.00;;;;;;5093965;28;20834;-68
2023/01/04 13:48:46;;;;;;;2.20;1.47;;;14.00;64.50;;;;;;5092200;28;20549;-68
2023/01/04 13:51:17;;;;;;;1.10;1.00;;;14.10;64.40;;;;;;5093746;28;21830;-68
2023/01/04 13:53:53;;;;;;;1.80;1.20;;;14.10;64.50;;;;;;5090335;28;20481;-67
2023/01/04 13:56:25;;;;;;;1.47;1.00;;;14.20;64.20;;;;;;5091385;28;20787;-68
2023/01/04 13:58:52;;;;;;;1.20;1.10;;;14.30;64.20;;;;;;5058754;28;20462;-67
2023/01/04 14:01:23;;;;;;;2.00;1.60;;;14.20;64.10;;;;;;5099392;28;20545;-68
2023/01/04 14:03:55;;;;;;;2.87;1.00;;;14.30;64.20;;;;;;5094361;28;20564;-68
2023/01/04 14:06:27;;;;;;;0.90;0.90;;;14.20;64.10;;;;;;5093700;28;20899;-69
2023/01/04 14:09:01;;;;;;;0.93;0.83;;;14.20;64.20;;;;;;5090941;28;20454;-68
2023/01/04 14:14:24;;;;;;;1.83;1.30;;;14.30;64.20;;;;;;5090387;28;20861;-67
2023/01/04 14:16:53;;;;;;;1.67;1.10;;;14.50;64.20;;;;;;5092721;28;21048;-69
2023/01/04 14:19:41;;;;;;;1.87;1.20;;;14.50;64.00;;;;;;5089400;28;20510;-68
2023/01/04 14:22:43;;;;;;;1.30;1.20;;;14.40;63.80;;;;;;5092659;28;20458;-68